sensor_id;sensor_type;location;lat;lon;timestamp;P1;durP1;ratioP1;P2;durP2;ratioP2
14076;SDS011;7114;51.100;13.998;2024-01-06T00:00:45;22.60;;;7.90;;
14076;SDS011;7114;51.100;13.998;2024-01-06T00:03:14;19.83;;;8.23;;
14076;SDS011;7114;51.100;13.998;2024-01-06T00:05:40;21.92;;;8.02;;
14076;SDS011;7114;51.100;13.998;2024-01-06T00:08:06;20.48;;;8.40;;
14076;SDS011;7114;51.100;13.998;2024-01-06T00:10:33;19.92;;;8.27;;
14076;SDS011;7114;51.100;13.998;2024-01-06T00:12:59;19.10;;;7.50;;
14076;SDS011;7114;51.100;13.998;2024-01-06T00:15:27;21.58;;;8.27;;
14076;SDS011;7114;51.100;13.998;2024-01-06T00:17:53;19.60;;;8.15;;
14076;SDS011;7114;51.100;13.998;2024-01-06T00:20:20;18.30;;;8.00;;
14076;SDS011;7114;51.100;13.998;2024-01-06T00:22:47;22.92;;;8.63;;
14076;SDS011;7114;51.100;13.998;2024-01-06T00:25:13;19.90;;;8.00;;
14076;SDS011;7114;51.100;13.998;2024-01-06T00:27:39;19.77;;;7.60;;
14076;SDS011;7114;51.100;13.998;2024-01-06T00:30:06;20.02;;;8.27;;
14076;SDS011;7114;51.100;13.998;2024-01-06T00:32:34;21.35;;;8.20;;
14076;SDS011;7114;51.100;13.998;2024-01-06T00:35:01;19.23;;;7.75;;
14076;SDS011;7114;51.100;13.998;2024-01-06T00:37:27;20.67;;;7.97;;
14076;SDS011;7114;51.100;13.998;2024-01-06T00:39:53;20.50;;;7.75;;
14076;SDS011;7114;51.100;13.998;2024-01-06T00:42:20;21.02;;;8.10;;
14076;SDS011;7114;51.100;13.998;2024-01-06T00:44:47;20.35;;;7.68;;
14076;SDS011;7114;51.100;13.998;2024-01-06T00:47:13;20.45;;;7.90;;
14076;SDS011;7114;51.100;13.998;2024-01-06T00:49:41;19.87;;;7.63;;
14076;SDS011;7114;51.100;13.998;2024-01-06T00:52:08;19.55;;;7.55;;
14076;SDS011;7114;51.100;13.998;2024-01-06T00:54:35;19.90;;;7.90;;
14076;SDS011;7114;51.100;13.998;2024-01-06T00:57:01;21.25;;;7.50;;
14076;SDS011;7114;51.100;13.998;2024-01-06T00:59:27;20.08;;;7.95;;
14076;SDS011;7114;51.100;13.998;2024-01-06T01:01:54;20.30;;;7.63;;
14076;SDS011;7114;51.100;13.998;2024-01-06T01:04:20;18.88;;;7.65;;
14076;SDS011;7114;51.100;13.998;2024-01-06T01:06:48;20.92;;;7.95;;
14076;SDS011;7114;51.100;13.998;2024-01-06T01:09:14;19.92;;;7.88;;
14076;SDS011;7114;51.100;13.998;2024-01-06T01:11:41;20.75;;;7.80;;
14076;SDS011;7114;51.100;13.998;2024-01-06T01:14:07;19.10;;;7.30;;
14076;SDS011;7114;51.100;13.998;2024-01-06T01:16:34;19.27;;;7.75;;
14076;SDS011;7114;51.100;13.998;2024-01-06T01:19:00;20.33;;;8.25;;
14076;SDS011;7114;51.100;13.998;2024-01-06T01:21:27;22.23;;;7.60;;
14076;SDS011;7114;51.100;13.998;2024-01-06T01:23:55;21.80;;;7.72;;
14076;SDS011;7114;51.100;13.998;2024-01-06T01:26:21;21.30;;;8.03;;
14076;SDS011;7114;51.100;13.998;2024-01-06T01:28:47;19.33;;;7.07;;
14076;SDS011;7114;51.100;13.998;2024-01-06T01:31:13;16.65;;;6.95;;
14076;SDS011;7114;51.100;13.998;2024-01-06T01:33:40;24.23;;;8.73;;
14076;SDS011;7114;51.100;13.998;2024-01-06T01:36:06;22.30;;;8.50;;
14076;SDS011;7114;51.100;13.998;2024-01-06T01:38:32;22.87;;;8.60;;
14076;SDS011;7114;51.100;13.998;2024-01-06T01:41:00;19.23;;;7.95;;
14076;SDS011;7114;51.100;13.998;2024-01-06T01:43:26;19.60;;;8.10;;
14076;SDS011;7114;51.100;13.998;2024-01-06T01:45:54;21.08;;;8.63;;
14076;SDS011;7114;51.100;13.998;2024-01-06T01:48:22;17.55;;;7.80;;
14076;SDS011;7114;51.100;13.998;2024-01-06T01:50:49;21.03;;;7.90;;
14076;SDS011;7114;51.100;13.998;2024-01-06T01:53:15;22.35;;;8.30;;
14076;SDS011;7114;51.100;13.998;2024-01-06T01:55:42;19.45;;;7.38;;
14076;SDS011;7114;51.100;13.998;2024-01-06T01:58:10;22.27;;;7.65;;
14076;SDS011;7114;51.100;13.998;2024-01-06T02:00:37;19.67;;;7.70;;
14076;SDS011;7114;51.100;13.998;2024-01-06T02:03:04;21.97;;;8.47;;
14076;SDS011;7114;51.100;13.998;2024-01-06T02:05:32;20.38;;;7.60;;
14076;SDS011;7114;51.100;13.998;2024-01-06T02:07:58;21.33;;;8.38;;
14076;SDS011;7114;51.100;13.998;2024-01-06T02:10:25;22.45;;;8.18;;
14076;SDS011;7114;51.100;13.998;2024-01-06T02:12:51;21.77;;;8.05;;
14076;SDS011;7114;51.100;13.998;2024-01-06T02:15:19;21.40;;;8.13;;
14076;SDS011;7114;51.100;13.998;2024-01-06T02:17:45;21.63;;;8.20;;
14076;SDS011;7114;51.100;13.998;2024-01-06T02:20:11;20.90;;;8.00;;
14076;SDS011;7114;51.100;13.998;2024-01-06T02:22:40;21.38;;;7.90;;
14076;SDS011;7114;51.100;13.998;2024-01-06T02:25:07;19.10;;;7.82;;
14076;SDS011;7114;51.100;13.998;2024-01-06T02:27:37;18.83;;;7.37;;
14076;SDS011;7114;51.100;13.998;2024-01-06T02:30:04;19.73;;;7.53;;
14076;SDS011;7114;51.100;13.998;2024-01-06T02:32:31;19.40;;;7.63;;
14076;SDS011;7114;51.100;13.998;2024-01-06T02:34:58;18.63;;;7.57;;
14076;SDS011;7114;51.100;13.998;2024-01-06T02:37:24;21.00;;;8.07;;
14076;SDS011;7114;51.100;13.998;2024-01-06T02:39:52;20.33;;;7.83;;
14076;SDS011;7114;51.100;13.998;2024-01-06T02:42:19;19.15;;;7.82;;
14076;SDS011;7114;51.100;13.998;2024-01-06T02:44:45;20.38;;;7.68;;
14076;SDS011;7114;51.100;13.998;2024-01-06T02:47:12;18.30;;;7.30;;
14076;SDS011;7114;51.100;13.998;2024-01-06T02:49:38;21.33;;;8.00;;
14076;SDS011;7114;51.100;13.998;2024-01-06T02:52:05;17.00;;;7.27;;
14076;SDS011;7114;51.100;13.998;2024-01-06T02:54:31;22.40;;;7.93;;
14076;SDS011;7114;51.100;13.998;2024-01-06T02:56:59;20.45;;;7.72;;
14076;SDS011;7114;51.100;13.998;2024-01-06T02:59:25;18.65;;;7.30;;
14076;SDS011;7114;51.100;13.998;2024-01-06T03:01:51;20.17;;;7.53;;
14076;SDS011;7114;51.100;13.998;2024-01-06T03:04:18;19.80;;;7.57;;
14076;SDS011;7114;51.100;13.998;2024-01-06T03:06:44;19.55;;;7.93;;
14076;SDS011;7114;51.100;13.998;2024-01-06T03:09:16;20.58;;;7.65;;
14076;SDS011;7114;51.100;13.998;2024-01-06T03:11:44;18.30;;;7.47;;
14076;SDS011;7114;51.100;13.998;2024-01-06T03:14:12;18.55;;;7.75;;
14076;SDS011;7114;51.100;13.998;2024-01-06T03:16:38;20.70;;;7.80;;
14076;SDS011;7114;51.100;13.998;2024-01-06T03:19:05;22.13;;;7.53;;
14076;SDS011;7114;51.100;13.998;2024-01-06T03:21:31;21.52;;;8.40;;
14076;SDS011;7114;51.100;13.998;2024-01-06T03:23:58;22.35;;;8.32;;
14076;SDS011;7114;51.100;13.998;2024-01-06T03:26:24;18.90;;;8.30;;
14076;SDS011;7114;51.100;13.998;2024-01-06T03:28:50;24.97;;;8.47;;
14076;SDS011;7114;51.100;13.998;2024-01-06T03:31:18;20.38;;;8.00;;
14076;SDS011;7114;51.100;13.998;2024-01-06T03:33:47;20.08;;;8.57;;
14076;SDS011;7114;51.100;13.998;2024-01-06T03:36:14;22.17;;;8.20;;
14076;SDS011;7114;51.100;13.998;2024-01-06T03:38:41;18.95;;;7.82;;
14076;SDS011;7114;51.100;13.998;2024-01-06T03:41:08;19.00;;;8.07;;
14076;SDS011;7114;51.100;13.998;2024-01-06T03:43:35;20.67;;;7.85;;
14076;SDS011;7114;51.100;13.998;2024-01-06T03:46:01;21.38;;;7.93;;
14076;SDS011;7114;51.100;13.998;2024-01-06T03:48:28;20.77;;;8.38;;
14076;SDS011;7114;51.100;13.998;2024-01-06T03:50:55;19.15;;;8.20;;
14076;SDS011;7114;51.100;13.998;2024-01-06T03:53:21;20.00;;;7.83;;
14076;SDS011;7114;51.100;13.998;2024-01-06T03:55:47;19.38;;;7.93;;
14076;SDS011;7114;51.100;13.998;2024-01-06T03:58:13;21.35;;;8.45;;
14076;SDS011;7114;51.100;13.998;2024-01-06T04:00:40;18.58;;;8.02;;
14076;SDS011;7114;51.100;13.998;2024-01-06T04:03:06;22.23;;;8.48;;
14076;SDS011;7114;51.100;13.998;2024-01-06T04:05:35;18.53;;;7.70;;
14076;SDS011;7114;51.100;13.998;2024-01-06T04:08:02;19.52;;;8.18;;
14076;SDS011;7114;51.100;13.998;2024-01-06T04:10:29;21.05;;;8.00;;
14076;SDS011;7114;51.100;13.998;2024-01-06T04:12:55;20.55;;;7.72;;
14076;SDS011;7114;51.100;13.998;2024-01-06T04:15:22;21.45;;;8.68;;
14076;SDS011;7114;51.100;13.998;2024-01-06T04:17:48;21.50;;;8.83;;
14076;SDS011;7114;51.100;13.998;2024-01-06T04:20:15;22.13;;;8.35;;
14076;SDS011;7114;51.100;13.998;2024-01-06T04:22:42;21.38;;;8.60;;
14076;SDS011;7114;51.100;13.998;2024-01-06T04:25:09;20.60;;;8.35;;
14076;SDS011;7114;51.100;13.998;2024-01-06T04:27:36;25.02;;;8.20;;
14076;SDS011;7114;51.100;13.998;2024-01-06T04:30:05;19.53;;;7.90;;
14076;SDS011;7114;51.100;13.998;2024-01-06T04:32:32;19.20;;;7.85;;
14076;SDS011;7114;51.100;13.998;2024-01-06T04:34:58;22.02;;;8.70;;
14076;SDS011;7114;51.100;13.998;2024-01-06T04:37:24;22.35;;;8.68;;
14076;SDS011;7114;51.100;13.998;2024-01-06T04:39:52;20.45;;;7.68;;
14076;SDS011;7114;51.100;13.998;2024-01-06T04:42:18;22.37;;;8.67;;
14076;SDS011;7114;51.100;13.998;2024-01-06T04:44:47;21.33;;;8.23;;
14076;SDS011;7114;51.100;13.998;2024-01-06T04:47:13;21.77;;;8.02;;
14076;SDS011;7114;51.100;13.998;2024-01-06T04:49:39;19.27;;;7.85;;
14076;SDS011;7114;51.100;13.998;2024-01-06T04:52:06;19.42;;;8.15;;
14076;SDS011;7114;51.100;13.998;2024-01-06T04:54:32;18.20;;;7.47;;
14076;SDS011;7114;51.100;13.998;2024-01-06T04:57:00;19.58;;;7.82;;
14076;SDS011;7114;51.100;13.998;2024-01-06T04:59:26;21.08;;;8.30;;
14076;SDS011;7114;51.100;13.998;2024-01-06T05:01:52;22.27;;;8.00;;
14076;SDS011;7114;51.100;13.998;2024-01-06T05:04:20;20.60;;;8.27;;
14076;SDS011;7114;51.100;13.998;2024-01-06T05:06:46;20.27;;;8.03;;
14076;SDS011;7114;51.100;13.998;2024-01-06T05:09:14;18.77;;;7.63;;
14076;SDS011;7114;51.100;13.998;2024-01-06T05:11:42;19.20;;;7.60;;
14076;SDS011;7114;51.100;13.998;2024-01-06T05:14:10;20.98;;;7.40;;
14076;SDS011;7114;51.100;13.998;2024-01-06T05:16:36;19.65;;;7.88;;
14076;SDS011;7114;51.100;13.998;2024-01-06T05:19:03;18.40;;;7.47;;
14076;SDS011;7114;51.100;13.998;2024-01-06T05:21:29;18.83;;;7.03;;
14076;SDS011;7114;51.100;13.998;2024-01-06T05:23:55;18.83;;;7.90;;
14076;SDS011;7114;51.100;13.998;2024-01-06T05:26:22;19.50;;;7.78;;
14076;SDS011;7114;51.100;13.998;2024-01-06T05:28:49;19.17;;;7.47;;
14076;SDS011;7114;51.100;13.998;2024-01-06T05:31:16;20.33;;;7.57;;
14076;SDS011;7114;51.100;13.998;2024-01-06T05:33:42;17.40;;;7.32;;
14076;SDS011;7114;51.100;13.998;2024-01-06T05:36:09;16.60;;;6.95;;
14076;SDS011;7114;51.100;13.998;2024-01-06T05:38:36;19.48;;;7.53;;
14076;SDS011;7114;51.100;13.998;2024-01-06T05:41:02;19.15;;;6.97;;
14076;SDS011;7114;51.100;13.998;2024-01-06T05:43:29;16.47;;;7.17;;
14076;SDS011;7114;51.100;13.998;2024-01-06T05:45:55;17.23;;;7.25;;
14076;SDS011;7114;51.100;13.998;2024-01-06T05:48:23;16.88;;;6.85;;
14076;SDS011;7114;51.100;13.998;2024-01-06T05:50:49;19.25;;;7.30;;
14076;SDS011;7114;51.100;13.998;2024-01-06T05:53:16;17.55;;;7.25;;
14076;SDS011;7114;51.100;13.998;2024-01-06T05:55:43;17.43;;;7.57;;
14076;SDS011;7114;51.100;13.998;2024-01-06T05:58:09;17.17;;;7.22;;
14076;SDS011;7114;51.100;13.998;2024-01-06T06:00:36;19.58;;;7.80;;
14076;SDS011;7114;51.100;13.998;2024-01-06T06:03:02;19.38;;;7.85;;
14076;SDS011;7114;51.100;13.998;2024-01-06T06:05:30;18.42;;;7.57;;
14076;SDS011;7114;51.100;13.998;2024-01-06T06:07:56;19.13;;;7.27;;
14076;SDS011;7114;51.100;13.998;2024-01-06T06:10:23;20.15;;;7.65;;
14076;SDS011;7114;51.100;13.998;2024-01-06T06:12:55;18.00;;;7.43;;
14076;SDS011;7114;51.100;13.998;2024-01-06T06:15:21;18.48;;;6.50;;
14076;SDS011;7114;51.100;13.998;2024-01-06T06:17:47;19.40;;;7.30;;
14076;SDS011;7114;51.100;13.998;2024-01-06T06:20:14;19.30;;;7.20;;
14076;SDS011;7114;51.100;13.998;2024-01-06T06:22:42;19.58;;;6.97;;
14076;SDS011;7114;51.100;13.998;2024-01-06T06:25:08;18.25;;;7.57;;
14076;SDS011;7114;51.100;13.998;2024-01-06T06:27:34;16.83;;;7.22;;
14076;SDS011;7114;51.100;13.998;2024-01-06T06:30:01;20.80;;;7.40;;
14076;SDS011;7114;51.100;13.998;2024-01-06T06:32:28;18.47;;;7.43;;
14076;SDS011;7114;51.100;13.998;2024-01-06T06:34:54;20.63;;;8.32;;
14076;SDS011;7114;51.100;13.998;2024-01-06T06:37:21;23.50;;;8.63;;
14076;SDS011;7114;51.100;13.998;2024-01-06T06:39:48;22.15;;;8.98;;
14076;SDS011;7114;51.100;13.998;2024-01-06T06:42:15;21.17;;;8.52;;
14076;SDS011;7114;51.100;13.998;2024-01-06T06:44:41;23.43;;;9.40;;
14076;SDS011;7114;51.100;13.998;2024-01-06T06:47:07;24.40;;;9.45;;
14076;SDS011;7114;51.100;13.998;2024-01-06T06:49:33;25.40;;;9.18;;
14076;SDS011;7114;51.100;13.998;2024-01-06T06:52:00;21.70;;;8.57;;
14076;SDS011;7114;51.100;13.998;2024-01-06T06:54:27;24.17;;;9.40;;
14076;SDS011;7114;51.100;13.998;2024-01-06T06:56:55;21.13;;;8.60;;
14076;SDS011;7114;51.100;13.998;2024-01-06T06:59:21;23.08;;;8.80;;
14076;SDS011;7114;51.100;13.998;2024-01-06T07:01:47;24.60;;;9.23;;
14076;SDS011;7114;51.100;13.998;2024-01-06T07:04:14;21.80;;;8.93;;
14076;SDS011;7114;51.100;13.998;2024-01-06T07:06:40;22.45;;;8.93;;
14076;SDS011;7114;51.100;13.998;2024-01-06T07:09:06;21.30;;;8.63;;
14076;SDS011;7114;51.100;13.998;2024-01-06T07:11:32;21.48;;;8.80;;
14076;SDS011;7114;51.100;13.998;2024-01-06T07:14:00;21.73;;;8.63;;
14076;SDS011;7114;51.100;13.998;2024-01-06T07:16:26;19.42;;;8.82;;
14076;SDS011;7114;51.100;13.998;2024-01-06T07:18:53;22.38;;;8.88;;
14076;SDS011;7114;51.100;13.998;2024-01-06T07:21:19;19.97;;;8.03;;
14076;SDS011;7114;51.100;13.998;2024-01-06T07:23:45;21.10;;;8.55;;
14076;SDS011;7114;51.100;13.998;2024-01-06T07:26:12;19.73;;;8.63;;
14076;SDS011;7114;51.100;13.998;2024-01-06T07:28:38;20.15;;;8.73;;
14076;SDS011;7114;51.100;13.998;2024-01-06T07:31:06;23.23;;;9.05;;
14076;SDS011;7114;51.100;13.998;2024-01-06T07:33:33;24.43;;;9.23;;
14076;SDS011;7114;51.100;13.998;2024-01-06T07:35:59;22.20;;;8.80;;
14076;SDS011;7114;51.100;13.998;2024-01-06T07:38:25;23.13;;;8.80;;
14076;SDS011;7114;51.100;13.998;2024-01-06T07:40:52;23.45;;;8.73;;
14076;SDS011;7114;51.100;13.998;2024-01-06T07:43:19;21.30;;;8.40;;
14076;SDS011;7114;51.100;13.998;2024-01-06T07:45:46;19.17;;;8.33;;
14076;SDS011;7114;51.100;13.998;2024-01-06T07:48:14;20.70;;;8.23;;
14076;SDS011;7114;51.100;13.998;2024-01-06T07:50:41;21.60;;;8.05;;
14076;SDS011;7114;51.100;13.998;2024-01-06T07:53:07;19.42;;;8.20;;
14076;SDS011;7114;51.100;13.998;2024-01-06T07:55:33;20.08;;;8.10;;
14076;SDS011;7114;51.100;13.998;2024-01-06T07:58:00;17.97;;;7.87;;
14076;SDS011;7114;51.100;13.998;2024-01-06T08:00:26;18.00;;;7.07;;
14076;SDS011;7114;51.100;13.998;2024-01-06T08:02:53;17.90;;;7.35;;
14076;SDS011;7114;51.100;13.998;2024-01-06T08:05:21;18.15;;;7.13;;
14076;SDS011;7114;51.100;13.998;2024-01-06T08:07:47;20.52;;;7.32;;
14076;SDS011;7114;51.100;13.998;2024-01-06T08:10:14;19.97;;;8.03;;
14076;SDS011;7114;51.100;13.998;2024-01-06T08:12:41;19.17;;;7.55;;
14076;SDS011;7114;51.100;13.998;2024-01-06T08:15:07;18.90;;;7.53;;
14076;SDS011;7114;51.100;13.998;2024-01-06T08:17:34;18.15;;;8.45;;
14076;SDS011;7114;51.100;13.998;2024-01-06T08:20:01;19.90;;;8.25;;
14076;SDS011;7114;51.100;13.998;2024-01-06T08:22:29;21.40;;;7.87;;
14076;SDS011;7114;51.100;13.998;2024-01-06T08:24:55;19.70;;;8.20;;
14076;SDS011;7114;51.100;13.998;2024-01-06T08:27:22;20.90;;;8.60;;
14076;SDS011;7114;51.100;13.998;2024-01-06T08:29:48;19.85;;;7.45;;
14076;SDS011;7114;51.100;13.998;2024-01-06T08:32:15;19.38;;;7.78;;
14076;SDS011;7114;51.100;13.998;2024-01-06T08:34:42;20.73;;;8.33;;
14076;SDS011;7114;51.100;13.998;2024-01-06T08:37:08;18.58;;;7.63;;
14076;SDS011;7114;51.100;13.998;2024-01-06T08:39:35;16.33;;;7.18;;
14076;SDS011;7114;51.100;13.998;2024-01-06T08:42:02;17.08;;;6.88;;
14076;SDS011;7114;51.100;13.998;2024-01-06T08:44:28;16.45;;;6.97;;
14076;SDS011;7114;51.100;13.998;2024-01-06T08:46:55;17.40;;;6.87;;
14076;SDS011;7114;51.100;13.998;2024-01-06T08:49:21;18.48;;;7.15;;
14076;SDS011;7114;51.100;13.998;2024-01-06T08:51:47;17.85;;;6.90;;
14076;SDS011;7114;51.100;13.998;2024-01-06T08:54:13;19.45;;;8.02;;
14076;SDS011;7114;51.100;13.998;2024-01-06T08:56:42;21.10;;;9.05;;
14076;SDS011;7114;51.100;13.998;2024-01-06T08:59:09;22.93;;;10.23;;
14076;SDS011;7114;51.100;13.998;2024-01-06T09:01:35;26.17;;;10.77;;
14076;SDS011;7114;51.100;13.998;2024-01-06T09:04:02;23.65;;;9.80;;
14076;SDS011;7114;51.100;13.998;2024-01-06T09:06:31;22.48;;;8.73;;
14076;SDS011;7114;51.100;13.998;2024-01-06T09:08:58;19.85;;;9.10;;
14076;SDS011;7114;51.100;13.998;2024-01-06T09:11:24;22.97;;;10.43;;
14076;SDS011;7114;51.100;13.998;2024-01-06T09:13:52;23.70;;;9.95;;
14076;SDS011;7114;51.100;13.998;2024-01-06T09:16:19;20.58;;;9.13;;
14076;SDS011;7114;51.100;13.998;2024-01-06T09:18:45;19.67;;;8.95;;
14076;SDS011;7114;51.100;13.998;2024-01-06T09:21:12;17.88;;;8.45;;
14076;SDS011;7114;51.100;13.998;2024-01-06T09:23:38;18.93;;;8.07;;
14076;SDS011;7114;51.100;13.998;2024-01-06T09:26:05;19.45;;;8.00;;
14076;SDS011;7114;51.100;13.998;2024-01-06T09:28:31;18.70;;;8.35;;
14076;SDS011;7114;51.100;13.998;2024-01-06T09:30:58;18.95;;;8.20;;
14076;SDS011;7114;51.100;13.998;2024-01-06T09:33:25;17.65;;;7.53;;
14076;SDS011;7114;51.100;13.998;2024-01-06T09:35:52;20.77;;;8.77;;
14076;SDS011;7114;51.100;13.998;2024-01-06T09:38:19;19.83;;;8.65;;
14076;SDS011;7114;51.100;13.998;2024-01-06T09:40:45;20.00;;;8.40;;
14076;SDS011;7114;51.100;13.998;2024-01-06T09:43:11;18.67;;;8.45;;
14076;SDS011;7114;51.100;13.998;2024-01-06T09:45:38;23.05;;;8.98;;
14076;SDS011;7114;51.100;13.998;2024-01-06T09:48:08;18.87;;;8.23;;
14076;SDS011;7114;51.100;13.998;2024-01-06T09:50:36;20.92;;;8.75;;
14076;SDS011;7114;51.100;13.998;2024-01-06T09:53:04;20.77;;;9.07;;
14076;SDS011;7114;51.100;13.998;2024-01-06T09:55:32;18.83;;;8.48;;
14076;SDS011;7114;51.100;13.998;2024-01-06T09:57:58;20.50;;;8.50;;
14076;SDS011;7114;51.100;13.998;2024-01-06T10:00:24;21.67;;;8.40;;
14076;SDS011;7114;51.100;13.998;2024-01-06T10:02:51;18.63;;;8.50;;
14076;SDS011;7114;51.100;13.998;2024-01-06T10:05:18;17.90;;;7.85;;
14076;SDS011;7114;51.100;13.998;2024-01-06T10:07:45;19.38;;;8.48;;
14076;SDS011;7114;51.100;13.998;2024-01-06T10:10:12;20.45;;;8.48;;
14076;SDS011;7114;51.100;13.998;2024-01-06T10:12:39;20.03;;;8.80;;
14076;SDS011;7114;51.100;13.998;2024-01-06T10:15:06;20.92;;;8.82;;
14076;SDS011;7114;51.100;13.998;2024-01-06T10:17:33;20.25;;;9.02;;
14076;SDS011;7114;51.100;13.998;2024-01-06T10:19:59;18.45;;;7.90;;
14076;SDS011;7114;51.100;13.998;2024-01-06T10:22:28;20.50;;;8.27;;
14076;SDS011;7114;51.100;13.998;2024-01-06T10:24:54;20.03;;;8.20;;
14076;SDS011;7114;51.100;13.998;2024-01-06T10:27:22;19.92;;;8.48;;
14076;SDS011;7114;51.100;13.998;2024-01-06T10:29:48;20.55;;;8.82;;
14076;SDS011;7114;51.100;13.998;2024-01-06T10:32:15;23.15;;;9.07;;
14076;SDS011;7114;51.100;13.998;2024-01-06T10:34:42;18.85;;;8.30;;
14076;SDS011;7114;51.100;13.998;2024-01-06T10:37:09;22.27;;;8.50;;
14076;SDS011;7114;51.100;13.998;2024-01-06T10:39:36;19.63;;;8.40;;
14076;SDS011;7114;51.100;13.998;2024-01-06T10:42:03;19.70;;;7.80;;
14076;SDS011;7114;51.100;13.998;2024-01-06T10:44:30;19.88;;;8.75;;
14076;SDS011;7114;51.100;13.998;2024-01-06T10:46:57;19.40;;;8.77;;
14076;SDS011;7114;51.100;13.998;2024-01-06T10:49:24;20.23;;;8.70;;
14076;SDS011;7114;51.100;13.998;2024-01-06T10:51:51;20.95;;;8.55;;
14076;SDS011;7114;51.100;13.998;2024-01-06T10:54:18;19.83;;;9.23;;
14076;SDS011;7114;51.100;13.998;2024-01-06T10:56:46;19.27;;;8.95;;
14076;SDS011;7114;51.100;13.998;2024-01-06T10:59:14;21.20;;;9.85;;
14076;SDS011;7114;51.100;13.998;2024-01-06T11:01:40;18.83;;;8.70;;
14076;SDS011;7114;51.100;13.998;2024-01-06T11:04:07;19.52;;;8.65;;
14076;SDS011;7114;51.100;13.998;2024-01-06T11:06:34;20.10;;;8.57;;
14076;SDS011;7114;51.100;13.998;2024-01-06T11:09:02;18.00;;;8.13;;
14076;SDS011;7114;51.100;13.998;2024-01-06T11:11:32;17.35;;;7.43;;
14076;SDS011;7114;51.100;13.998;2024-01-06T11:16:49;19.17;;;7.70;;
14076;SDS011;7114;51.100;13.998;2024-01-06T11:22:20;19.10;;;8.27;;
14076;SDS011;7114;51.100;13.998;2024-01-06T11:24:47;18.65;;;8.02;;
14076;SDS011;7114;51.100;13.998;2024-01-06T11:27:17;19.23;;;8.07;;
14076;SDS011;7114;51.100;13.998;2024-01-06T11:29:45;18.02;;;8.02;;
14076;SDS011;7114;51.100;13.998;2024-01-06T11:32:25;17.02;;;7.28;;
14076;SDS011;7114;51.100;13.998;2024-01-06T11:34:53;18.88;;;7.68;;
14076;SDS011;7114;51.100;13.998;2024-01-06T11:37:24;16.25;;;7.43;;
14076;SDS011;7114;51.100;13.998;2024-01-06T11:39:52;16.77;;;7.67;;
14076;SDS011;7114;51.100;13.998;2024-01-06T11:42:19;19.05;;;8.20;;
14076;SDS011;7114;51.100;13.998;2024-01-06T11:44:50;19.15;;;8.77;;
14076;SDS011;7114;51.100;13.998;2024-01-06T11:47:18;18.83;;;7.82;;
14076;SDS011;7114;51.100;13.998;2024-01-06T11:49:48;18.52;;;7.90;;
14076;SDS011;7114;51.100;13.998;2024-01-06T11:52:19;20.93;;;8.10;;
14076;SDS011;7114;51.100;13.998;2024-01-06T11:54:45;18.33;;;7.88;;
14076;SDS011;7114;51.100;13.998;2024-01-06T11:57:12;17.98;;;7.43;;
14076;SDS011;7114;51.100;13.998;2024-01-06T11:59:39;17.58;;;7.18;;
14076;SDS011;7114;51.100;13.998;2024-01-06T12:02:09;20.08;;;8.68;;
14076;SDS011;7114;51.100;13.998;2024-01-06T12:04:38;21.87;;;8.00;;
14076;SDS011;7114;51.100;13.998;2024-01-06T12:07:05;22.13;;;8.00;;
14076;SDS011;7114;51.100;13.998;2024-01-06T12:09:32;21.85;;;8.20;;
14076;SDS011;7114;51.100;13.998;2024-01-06T12:12:02;23.08;;;8.07;;
14076;SDS011;7114;51.100;13.998;2024-01-06T12:14:30;21.63;;;8.32;;
14076;SDS011;7114;51.100;13.998;2024-01-06T12:16:57;22.80;;;8.60;;
14076;SDS011;7114;51.100;13.998;2024-01-06T12:19:28;22.55;;;8.80;;
14076;SDS011;7114;51.100;13.998;2024-01-06T12:21:55;23.13;;;8.43;;
14076;SDS011;7114;51.100;13.998;2024-01-06T12:24:22;24.02;;;9.68;;
14076;SDS011;7114;51.100;13.998;2024-01-06T12:26:48;22.95;;;9.35;;
14076;SDS011;7114;51.100;13.998;2024-01-06T12:29:16;23.70;;;9.47;;
14076;SDS011;7114;51.100;13.998;2024-01-06T12:31:43;25.50;;;10.20;;
14076;SDS011;7114;51.100;13.998;2024-01-06T12:34:09;24.20;;;9.63;;
14076;SDS011;7114;51.100;13.998;2024-01-06T12:36:37;23.30;;;9.27;;
14076;SDS011;7114;51.100;13.998;2024-01-06T12:39:04;24.48;;;9.40;;
14076;SDS011;7114;51.100;13.998;2024-01-06T12:41:31;24.33;;;9.07;;
14076;SDS011;7114;51.100;13.998;2024-01-06T12:43:58;23.73;;;9.25;;
14076;SDS011;7114;51.100;13.998;2024-01-06T12:46:24;24.02;;;9.80;;
14076;SDS011;7114;51.100;13.998;2024-01-06T12:48:51;23.70;;;9.45;;
14076;SDS011;7114;51.100;13.998;2024-01-06T12:51:17;22.00;;;8.98;;
14076;SDS011;7114;51.100;13.998;2024-01-06T12:53:45;23.87;;;9.43;;
14076;SDS011;7114;51.100;13.998;2024-01-06T12:56:11;23.15;;;9.98;;
14076;SDS011;7114;51.100;13.998;2024-01-06T12:58:39;26.67;;;9.40;;
14076;SDS011;7114;51.100;13.998;2024-01-06T13:01:06;24.92;;;10.00;;
14076;SDS011;7114;51.100;13.998;2024-01-06T13:03:33;22.92;;;9.93;;
14076;SDS011;7114;51.100;13.998;2024-01-06T13:05:59;26.17;;;10.00;;
14076;SDS011;7114;51.100;13.998;2024-01-06T13:08:26;23.92;;;9.65;;
14076;SDS011;7114;51.100;13.998;2024-01-06T13:10:55;27.88;;;9.68;;
14076;SDS011;7114;51.100;13.998;2024-01-06T13:13:22;25.17;;;9.80;;
14076;SDS011;7114;51.100;13.998;2024-01-06T13:15:48;24.35;;;9.95;;
14076;SDS011;7114;51.100;13.998;2024-01-06T13:18:14;24.57;;;9.67;;
14076;SDS011;7114;51.100;13.998;2024-01-06T13:20:41;28.13;;;11.10;;
14076;SDS011;7114;51.100;13.998;2024-01-06T13:23:08;28.98;;;10.60;;
14076;SDS011;7114;51.100;13.998;2024-01-06T13:25:36;28.10;;;10.30;;
14076;SDS011;7114;51.100;13.998;2024-01-06T13:28:05;28.65;;;10.85;;
14076;SDS011;7114;51.100;13.998;2024-01-06T13:30:32;27.50;;;10.47;;
14076;SDS011;7114;51.100;13.998;2024-01-06T13:32:58;27.08;;;10.68;;
14076;SDS011;7114;51.100;13.998;2024-01-06T13:35:25;27.85;;;10.52;;
14076;SDS011;7114;51.100;13.998;2024-01-06T13:37:51;26.33;;;10.65;;
14076;SDS011;7114;51.100;13.998;2024-01-06T13:40:22;29.70;;;11.18;;
14076;SDS011;7114;51.100;13.998;2024-01-06T13:42:48;32.23;;;11.60;;
14076;SDS011;7114;51.100;13.998;2024-01-06T13:45:17;31.58;;;11.40;;
14076;SDS011;7114;51.100;13.998;2024-01-06T13:47:44;32.35;;;11.98;;
14076;SDS011;7114;51.100;13.998;2024-01-06T13:50:11;31.67;;;11.25;;
14076;SDS011;7114;51.100;13.998;2024-01-06T13:52:38;29.63;;;11.52;;
14076;SDS011;7114;51.100;13.998;2024-01-06T13:55:05;31.43;;;11.23;;
14076;SDS011;7114;51.100;13.998;2024-01-06T13:57:31;33.25;;;11.70;;
14076;SDS011;7114;51.100;13.998;2024-01-06T13:59:57;31.17;;;11.43;;
14076;SDS011;7114;51.100;13.998;2024-01-06T14:02:26;35.75;;;12.15;;
14076;SDS011;7114;51.100;13.998;2024-01-06T14:04:53;35.22;;;13.20;;
14076;SDS011;7114;51.100;13.998;2024-01-06T14:07:20;34.57;;;13.00;;
14076;SDS011;7114;51.100;13.998;2024-01-06T14:09:47;41.67;;;13.82;;
14076;SDS011;7114;51.100;13.998;2024-01-06T14:12:13;35.10;;;12.75;;
14076;SDS011;7114;51.100;13.998;2024-01-06T14:14:40;30.98;;;12.32;;
14076;SDS011;7114;51.100;13.998;2024-01-06T14:17:07;35.05;;;12.48;;
14076;SDS011;7114;51.100;13.998;2024-01-06T14:19:37;38.67;;;13.47;;
14076;SDS011;7114;51.100;13.998;2024-01-06T14:22:04;37.95;;;13.23;;
14076;SDS011;7114;51.100;13.998;2024-01-06T14:24:31;35.53;;;14.00;;
14076;SDS011;7114;51.100;13.998;2024-01-06T14:26:57;37.47;;;14.18;;
14076;SDS011;7114;51.100;13.998;2024-01-06T14:29:23;39.95;;;15.30;;
14076;SDS011;7114;51.100;13.998;2024-01-06T14:31:50;40.60;;;15.33;;
14076;SDS011;7114;51.100;13.998;2024-01-06T14:34:17;40.53;;;15.82;;
14076;SDS011;7114;51.100;13.998;2024-01-06T14:36:44;44.08;;;16.25;;